createdAt,value
2018-01-23T00:01:19.693Z,98211.56
2018-01-23T00:03:47.971Z,98213.69
2018-01-23T00:06:16.255Z,98225.72
2018-01-23T00:08:44.507Z,98235.64
2018-01-23T00:11:12.754Z,98239.19
2018-01-23T00:13:41.027Z,98234.84
2018-01-23T00:16:09.280Z,98223.96
2018-01-23T00:18:37.555Z,98234.34
2018-01-23T00:21:05.856Z,98236.14
2018-01-23T00:23:34.147Z,98229.34
2018-01-23T00:26:02.412Z,98234.37
2018-01-23T00:28:30.684Z,98230.78
2018-01-23T00:30:58.935Z,98230.70
2018-01-23T00:33:27.978Z,98234.25
2018-01-23T00:35:56.255Z,98238.41
2018-01-23T00:38:24.519Z,98246.16
2018-01-23T00:40:53.531Z,98261.93
2018-01-23T00:43:22.607Z,98255.82
2018-01-23T00:45:50.902Z,98253.27
2018-01-23T00:48:19.182Z,98259.69
2018-01-23T00:50:47.480Z,98262.91
2018-01-23T00:53:15.738Z,98268.51
2018-01-23T00:55:43.997Z,98272.28
2018-01-23T00:58:12.272Z,98275.56
2018-01-23T01:00:41.303Z,98278.41
2018-01-23T01:03:09.571Z,98282.88
2018-01-23T01:05:39.396Z,98279.31
2018-01-23T01:08:07.694Z,98303.92
2018-01-23T01:10:36.772Z,98301.06
2018-01-23T01:13:05.069Z,98312.55
2018-01-23T01:15:34.079Z,98311.34
2018-01-23T01:18:03.112Z,98311.53
2018-01-23T01:20:31.384Z,98317.72
2018-01-23T01:23:00.415Z,98329.63
2018-01-23T01:25:28.676Z,98312.45
2018-01-23T01:27:57.687Z,98313.16
2018-01-23T01:30:26.705Z,98305.62
2018-01-23T01:32:54.981Z,98308.89
2018-01-23T01:35:23.992Z,98327.59
2018-01-23T01:37:53.118Z,98338.89
2018-01-23T01:40:21.376Z,98333.39
2018-01-23T01:42:50.479Z,98333.39
2018-01-23T01:45:19.633Z,98340.71
2018-01-23T01:47:47.990Z,98347.22
2018-01-23T01:50:17.044Z,98346.39
2018-01-23T01:52:45.299Z,98351.58
2018-01-23T01:55:14.281Z,98350.56
2018-01-23T01:57:42.535Z,98352.52
2018-01-23T02:00:10.791Z,98355.95
2018-01-23T02:02:39.807Z,98358.71
2018-01-23T02:05:08.088Z,98366.44
2018-01-23T02:07:36.359Z,98380.78
2018-01-23T02:10:05.435Z,98377.60
2018-01-23T02:12:33.679Z,98382.89
2018-01-23T02:15:01.998Z,98390.73
2018-01-23T02:17:31.025Z,98402.02
2018-01-23T02:19:59.283Z,98395.20
2018-01-23T02:22:27.531Z,98403.44
2018-01-23T02:24:56.600Z,98412.67
2018-01-23T02:27:25.619Z,98409.93
2018-01-23T02:29:53.879Z,98415.91
2018-01-23T02:32:22.168Z,98409.20
2018-01-23T02:34:50.478Z,98406.28
2018-01-23T02:37:18.791Z,98409.42
2018-01-23T02:39:47.096Z,98405.75
2018-01-23T02:42:15.355Z,98408.70
2018-01-23T02:44:43.623Z,98404.52
2018-01-23T02:47:11.874Z,98409.52
2018-01-23T02:49:40.154Z,98417.14
2018-01-23T02:52:09.160Z,98420.69
2018-01-23T02:54:38.224Z,98433.62
2018-01-23T02:57:06.492Z,98431.70
2018-01-23T02:59:34.766Z,98436.45
2018-01-23T03:02:03.012Z,98430.95
2018-01-23T03:04:31.278Z,98427.90
2018-01-23T03:06:59.544Z,98431.27
2018-01-23T03:09:27.782Z,98435.03
2018-01-23T03:11:56.041Z,98427.52
2018-01-23T03:14:24.333Z,98430.25
2018-01-23T03:16:52.612Z,98425.98
2018-01-23T03:19:21.661Z,98428.62
2018-01-23T03:21:49.938Z,98426.70
2018-01-23T03:24:18.257Z,98428.72
2018-01-23T03:26:46.513Z,98448.03
2018-01-23T03:29:15.547Z,98441.64
2018-01-23T03:31:44.567Z,98444.98
2018-01-23T03:34:12.818Z,98446.93
2018-01-23T03:36:41.093Z,98443.47
2018-01-23T03:39:09.339Z,98445.20
2018-01-23T03:41:37.647Z,98453.63
2018-01-23T03:44:06.662Z,98456.45
2018-01-23T03:46:34.926Z,98464.34
2018-01-23T03:49:03.167Z,98471.49
2018-01-23T03:51:31.432Z,98469.08
2018-01-23T03:53:59.699Z,98471.22
2018-01-23T03:56:27.963Z,98479.20
2018-01-23T03:58:56.972Z,98479.02
2018-01-23T04:01:25.992Z,98494.19
2018-01-23T04:03:54.232Z,98476.47
2018-01-23T04:06:22.514Z,98480.33
2018-01-23T04:08:50.795Z,98485.30
2018-01-23T04:11:19.056Z,98480.65
2018-01-23T04:13:48.170Z,98476.36
2018-01-23T04:16:17.619Z,98485.98
2018-01-23T04:18:46.681Z,98492.55
2018-01-23T04:21:14.943Z,98495.64
2018-01-23T04:23:43.968Z,98498.50
2018-01-23T04:26:12.254Z,98501.61
2018-01-23T04:28:40.491Z,98496.73
2018-01-23T04:31:08.751Z,98517.45
2018-01-23T04:33:37.021Z,98500.56
2018-01-23T04:36:05.347Z,98504.74
2018-01-23T04:38:33.639Z,98500.23
2018-01-23T04:41:01.916Z,98500.28
2018-01-23T04:43:30.160Z,98497.18
2018-01-23T04:45:59.187Z,98489.22
2018-01-23T04:48:28.274Z,98496.91
2018-01-23T04:50:57.647Z,98503.52
2018-01-23T04:53:25.916Z,98501.88
2018-01-23T04:55:54.170Z,98512.58
2018-01-23T04:58:23.212Z,98514.31
2018-01-23T05:00:51.510Z,98519.14
2018-01-23T05:03:19.847Z,98518.13
2018-01-23T05:05:48.213Z,98521.68
2018-01-23T05:08:16.601Z,98531.52
2018-01-23T05:10:44.860Z,98531.48
2018-01-23T05:13:13.231Z,98530.02
2018-01-23T05:15:41.639Z,98536.11
2018-01-23T05:18:10.729Z,98536.11
2018-01-23T05:20:40.184Z,98535.63
2018-01-23T05:23:08.533Z,98540.37
2018-01-23T05:25:37.607Z,98545.61
2018-01-23T05:28:05.930Z,98537.64
2018-01-23T05:30:34.935Z,98545.97
2018-01-23T05:33:04.279Z,98546.03
2018-01-23T05:35:32.722Z,98549.59
2018-01-23T05:38:01.193Z,98555.11
2018-01-23T05:40:29.462Z,98550.92
2018-01-23T05:42:57.874Z,98553.06
2018-01-23T05:45:26.149Z,98557.66
2018-01-23T05:47:54.406Z,98557.66
2018-01-23T05:50:22.809Z,98569.90
2018-01-23T05:52:51.333Z,98572.37
2018-01-23T05:55:19.651Z,98570.05
2018-01-23T05:57:48.906Z,98568.63
2018-01-23T06:00:17.660Z,98570.40
2018-01-23T06:02:46.737Z,98568.16
2018-01-23T06:05:15.438Z,98581.34
2018-01-23T06:07:43.954Z,98590.97
2018-01-23T06:10:12.391Z,98590.71
2018-01-23T06:12:42.430Z,98602.17
2018-01-23T06:15:10.718Z,98615.04
2018-01-23T06:17:39.736Z,98608.00
2018-01-23T06:20:08.378Z,98608.80
2018-01-23T06:22:36.980Z,98604.20
2018-01-23T06:25:06.091Z,98613.25
2018-01-23T06:27:34.398Z,98617.80
2018-01-23T06:30:03.629Z,98611.16
2018-01-23T06:32:32.021Z,98617.58
2018-01-23T06:35:00.416Z,98624.45
2018-01-23T06:37:28.660Z,98627.41
2018-01-23T06:39:57.615Z,98636.39
2018-01-23T06:42:25.884Z,98644.87
2018-01-23T06:44:55.037Z,98652.63
2018-01-23T06:47:23.273Z,98653.64
2018-01-23T06:49:52.321Z,98669.06
2018-01-23T06:52:20.629Z,98669.33
2018-01-23T06:54:50.136Z,98677.70
2018-01-23T06:57:19.310Z,98676.02
2018-01-23T06:59:47.793Z,98683.14
2018-01-23T07:02:17.016Z,98675.53
2018-01-23T07:04:45.587Z,98663.81
2018-01-23T07:07:14.535Z,98672.30
2018-01-23T07:09:43.575Z,98679.97
2018-01-23T07:12:12.446Z,98684.70
2018-01-23T07:14:41.510Z,98688.20
2018-01-23T07:17:09.977Z,98686.12
2018-01-23T07:19:38.240Z,98689.25
2018-01-23T07:22:06.525Z,98690.08
2018-01-23T07:24:35.056Z,98697.50
2018-01-23T07:27:03.944Z,98700.11
2018-01-23T07:29:32.612Z,98705.58
2018-01-23T07:32:00.872Z,98709.10
2018-01-23T07:34:29.531Z,98714.73
2018-01-23T07:36:57.819Z,98714.65
2018-01-23T07:39:26.678Z,98714.85
2018-01-23T07:41:56.735Z,98721.98
2018-01-23T07:44:25.235Z,98723.23
2018-01-23T07:46:53.479Z,98731.45
2018-01-23T07:49:22.530Z,98738.72
2018-01-23T07:51:51.246Z,98737.19
2018-01-23T07:54:19.740Z,98737.71
2018-01-23T07:56:48.193Z,98736.03
2018-01-23T07:59:16.505Z,98735.87
2018-01-23T08:01:45.212Z,98745.53
2018-01-23T08:04:14.280Z,98749.27
2018-01-23T08:06:43.597Z,98746.55
2018-01-23T08:09:11.853Z,98753.97
2018-01-23T08:11:40.112Z,98763.30
2018-01-23T08:14:08.359Z,98755.24
2018-01-23T08:16:37.403Z,98754.95
2018-01-23T08:19:05.732Z,98764.44
2018-01-23T08:21:34.185Z,98759.52
2018-01-23T08:24:03.063Z,98758.48
2018-01-23T08:26:32.499Z,98764.34
2018-01-23T08:29:00.833Z,98759.60
2018-01-23T08:31:29.188Z,98754.49
2018-01-23T08:33:57.441Z,98764.11
2018-01-23T08:36:26.517Z,98766.63
2018-01-23T08:38:55.112Z,98760.19
2018-01-23T08:41:23.607Z,98761.79
2018-01-23T08:43:52.056Z,98766.94
2018-01-23T08:46:21.113Z,98769.72
2018-01-23T08:48:49.859Z,98766.87
2018-01-23T08:51:18.361Z,98775.38
2018-01-23T08:53:47.823Z,98776.62
2018-01-23T08:56:16.548Z,98784.88
2018-01-23T08:58:45.092Z,98782.22
2018-01-23T09:01:13.372Z,98783.98
2018-01-23T09:03:41.851Z,98787.59
2018-01-23T09:06:10.938Z,98793.66
2018-01-23T09:08:40.572Z,98791.81
2018-01-23T09:11:10.103Z,98794.16
2018-01-23T09:13:38.535Z,98790.83
2018-01-23T09:16:06.917Z,98796.33
2018-01-23T09:18:35.352Z,98797.86
2018-01-23T09:21:03.899Z,98805.13
2018-01-23T09:23:32.159Z,98796.54
2018-01-23T09:26:00.413Z,98803.81
2018-01-23T09:28:29.795Z,98808.69
2018-01-23T09:30:58.863Z,98815.59
2018-01-23T09:33:27.127Z,98824.41
2018-01-23T09:35:56.149Z,98824.09
2018-01-23T09:38:25.179Z,98823.34
2018-01-23T09:40:53.423Z,98822.99
2018-01-23T09:43:22.471Z,98823.53
2018-01-23T09:45:50.735Z,98830.46
2018-01-23T09:48:19.167Z,98832.27
2018-01-23T09:50:47.505Z,98835.11
2018-01-23T09:53:16.538Z,98840.81
2018-01-23T09:55:44.789Z,98843.02
2018-01-23T09:58:13.047Z,98836.06
2018-01-23T10:00:41.295Z,98848.07
2018-01-23T10:03:09.579Z,98846.88
2018-01-23T10:05:38.583Z,98847.70
2018-01-23T10:08:07.612Z,98854.59
2018-01-23T10:10:35.851Z,98855.52
2018-01-23T10:13:04.153Z,98858.86
2018-01-23T10:15:32.412Z,98856.11
2018-01-23T10:18:00.677Z,98862.14
2018-01-23T10:20:28.916Z,98864.88
2018-01-23T10:22:57.184Z,98859.27
2018-01-23T10:25:25.432Z,98854.61
2018-01-23T10:27:53.970Z,98864.73
2018-01-23T10:30:22.233Z,98858.99
2018-01-23T10:32:50.529Z,98854.92
2018-01-23T10:35:18.879Z,98859.63
2018-01-23T10:37:47.116Z,98855.55
2018-01-23T10:40:15.362Z,98861.73
2018-01-23T10:42:43.609Z,98860.95
2018-01-23T10:45:11.858Z,98866.37
2018-01-23T10:47:40.112Z,98862.09
2018-01-23T10:50:09.203Z,98858.08
2018-01-23T10:52:37.492Z,98866.44
2018-01-23T10:55:05.741Z,98863.41
2018-01-23T10:57:34.007Z,98864.73
2018-01-23T11:00:02.252Z,98863.82
2018-01-23T11:02:30.499Z,98863.03
2018-01-23T11:04:58.801Z,98854.06
2018-01-23T11:07:27.047Z,98855.91
2018-01-23T11:09:56.681Z,98856.83
2018-01-23T11:12:24.926Z,98862.44
2018-01-23T11:14:53.235Z,98854.27
2018-01-23T11:17:21.581Z,98857.55
2018-01-23T11:19:50.029Z,98857.73
2018-01-23T11:22:19.052Z,98845.73
2018-01-23T11:24:47.428Z,98847.75
2018-01-23T11:27:15.687Z,98843.86
2018-01-23T11:29:44.020Z,98838.16
2018-01-23T11:32:13.031Z,98838.98
2018-01-23T11:34:41.304Z,98833.69
2018-01-23T11:37:09.551Z,98829.53
2018-01-23T11:39:37.819Z,98829.05
2018-01-23T11:42:06.090Z,98825.47
2018-01-23T11:44:34.367Z,98819.98
2018-01-23T11:47:03.958Z,98813.14
2018-01-23T11:49:32.221Z,98813.98
2018-01-23T11:52:00.463Z,98814.20
2018-01-23T11:54:28.723Z,98813.27
2018-01-23T11:56:56.971Z,98799.84
2018-01-23T11:59:25.242Z,98801.15
2018-01-23T12:01:53.490Z,98796.00
2018-01-23T12:04:21.781Z,98788.26
2018-01-23T12:06:50.070Z,98786.70
2018-01-23T12:09:18.392Z,98793.72
2018-01-23T12:11:46.684Z,98786.78
2018-01-23T12:14:14.956Z,98787.68
2018-01-23T12:16:43.228Z,98785.61
2018-01-23T12:19:11.495Z,98785.88
2018-01-23T12:21:39.738Z,98780.52
2018-01-23T12:24:08.025Z,98781.72
2018-01-23T12:26:36.343Z,98780.13
2018-01-23T12:29:04.629Z,98778.66
2018-01-23T12:31:32.879Z,98778.80
2018-01-23T12:34:01.918Z,98772.26
2018-01-23T12:36:30.171Z,98774.56
2018-01-23T12:38:59.179Z,98773.97
2018-01-23T12:41:28.200Z,98775.73
2018-01-23T12:43:56.454Z,98775.64
2018-01-23T12:46:24.725Z,98771.27
2018-01-23T12:48:53.005Z,98771.11
2018-01-23T12:51:22.056Z,98773.16
2018-01-23T12:53:50.336Z,98767.94
2018-01-23T12:56:18.756Z,98767.05
2018-01-23T12:58:47.789Z,98767.45
2018-01-23T13:01:16.064Z,98761.17
2018-01-23T13:03:44.329Z,98763.80
2018-01-23T13:06:13.380Z,98767.34
2018-01-23T13:08:41.654Z,98768.00
2018-01-23T13:11:09.968Z,98763.30
2018-01-23T13:13:38.217Z,98761.91
2018-01-23T13:16:06.501Z,98763.49
2018-01-23T13:18:35.528Z,98762.52
2018-01-23T13:21:03.859Z,98759.48
2018-01-23T13:23:32.111Z,98767.74
2018-01-23T13:26:00.397Z,98769.73
2018-01-23T13:28:28.670Z,98769.96
2018-01-23T13:30:57.708Z,98764.55
2018-01-23T13:33:25.984Z,98758.72
2018-01-23T13:35:54.283Z,98755.05
2018-01-23T13:38:22.660Z,98761.46
2018-01-23T13:40:50.958Z,98756.33
2018-01-23T13:43:19.243Z,98760.88
2018-01-23T13:45:47.549Z,98759.34
2018-01-23T13:48:15.829Z,98755.94
2018-01-23T13:50:44.105Z,98757.41
2018-01-23T13:53:12.372Z,98746.31
2018-01-23T13:55:40.635Z,98756.02
2018-01-23T13:58:08.961Z,98752.78
2018-01-23T14:00:37.229Z,98753.23
2018-01-23T14:03:05.506Z,98758.29
2018-01-23T14:05:33.780Z,98754.06
2018-01-23T14:08:02.055Z,98761.45
2018-01-23T14:10:30.347Z,98753.18
2018-01-23T14:12:58.608Z,98758.06
2018-01-23T14:15:26.863Z,98753.16
2018-01-23T14:17:55.915Z,98758.98
2018-01-23T14:20:24.216Z,98755.28
2018-01-23T14:22:52.523Z,98757.63
2018-01-23T14:25:22.323Z,98761.63
2018-01-23T14:27:50.640Z,98761.70
2018-01-23T14:30:18.917Z,98758.66
2018-01-23T14:32:47.219Z,98766.94
2018-01-23T14:35:15.493Z,98765.69
2018-01-23T14:37:43.763Z,98775.86
2018-01-23T14:40:12.020Z,98771.92
2018-01-23T14:42:40.351Z,98769.83
2018-01-23T14:45:08.675Z,98769.63
2018-01-23T14:47:36.967Z,98776.61
2018-01-23T14:50:05.262Z,98773.14
2018-01-23T14:52:33.543Z,98770.98
2018-01-23T14:55:01.850Z,98769.75
2018-01-23T14:57:30.911Z,98774.05
2018-01-23T14:59:59.185Z,98778.25
2018-01-23T15:02:27.472Z,98773.92
2018-01-23T15:04:55.740Z,98786.33
2018-01-23T15:07:24.805Z,98783.27
2018-01-23T15:09:53.100Z,98810.62
2018-01-23T15:12:21.413Z,98792.03
2018-01-23T15:14:49.722Z,98796.55
2018-01-23T15:17:18.001Z,98797.95
2018-01-23T15:19:46.293Z,98794.08
2018-01-23T15:22:14.612Z,98800.72
2018-01-23T15:24:42.947Z,98802.16
2018-01-23T15:27:11.204Z,98792.17
2018-01-23T15:29:39.475Z,98796.55
2018-01-23T15:32:07.803Z,98797.56
2018-01-23T15:34:36.111Z,98799.40
2018-01-23T15:37:04.385Z,98803.96
2018-01-23T15:39:32.707Z,98797.45
2018-01-23T15:42:01.839Z,98809.27
2018-01-23T15:44:30.871Z,98808.25
2018-01-23T15:46:59.945Z,98801.92
2018-01-23T15:49:28.232Z,98806.52
2018-01-23T15:51:56.506Z,98798.86
2018-01-23T15:54:25.612Z,98802.74
2018-01-23T15:56:54.694Z,98798.95
2018-01-23T15:59:22.995Z,98797.42
2018-01-23T16:01:51.330Z,98794.07
2018-01-23T16:04:19.666Z,98789.28
2018-01-23T16:06:48.030Z,98788.96
2018-01-23T16:09:16.406Z,98792.02
2018-01-23T16:11:44.706Z,98794.77
2018-01-23T16:14:13.809Z,98791.33
2018-01-23T16:16:42.093Z,98790.28
2018-01-23T16:19:10.424Z,98787.73
2018-01-23T16:21:38.705Z,98792.21
2018-01-23T16:24:06.994Z,98792.72
2018-01-23T16:26:35.305Z,98797.33
2018-01-23T16:29:03.616Z,98789.69
2018-01-23T16:31:32.745Z,98794.05
2018-01-23T16:34:01.048Z,98789.16
2018-01-23T16:36:29.278Z,98778.37
2018-01-23T16:38:57.567Z,98784.99
2018-01-23T16:41:25.862Z,98789.56
2018-01-23T16:43:54.312Z,98787.42
2018-01-23T16:46:22.576Z,98782.34
2018-01-23T16:48:50.919Z,98786.69
2018-01-23T16:51:19.276Z,98786.60
2018-01-23T16:53:48.381Z,98784.36
2018-01-23T16:56:16.669Z,98785.47
2018-01-23T16:58:44.963Z,98781.30
2018-01-23T17:01:13.256Z,98785.15
2018-01-23T17:03:41.513Z,98789.84
2018-01-23T17:06:10.580Z,98786.41
2018-01-23T17:08:38.860Z,98784.87
2018-01-23T17:11:07.147Z,98781.49
2018-01-23T17:13:35.422Z,98782.00
2018-01-23T17:16:03.703Z,98779.56
2018-01-23T17:18:31.979Z,98777.70
2018-01-23T17:21:00.321Z,98783.31
2018-01-23T17:23:28.631Z,98789.66
2018-01-23T17:25:57.701Z,98781.52
2018-01-23T17:28:25.968Z,98784.64
2018-01-23T17:30:54.353Z,98787.38
2018-01-23T17:33:22.663Z,98784.14
2018-01-23T17:35:50.970Z,98777.11
2018-01-23T17:38:19.354Z,98782.69
2018-01-23T17:40:47.734Z,98783.59
2018-01-23T17:43:16.052Z,98774.69
2018-01-23T17:45:45.846Z,98790.16
2018-01-23T17:48:14.180Z,98780.98
2018-01-23T17:50:42.516Z,98784.25
2018-01-23T17:53:10.797Z,98785.62
2018-01-23T17:55:39.304Z,98793.51
2018-01-23T17:58:07.615Z,98786.53
2018-01-23T18:00:35.910Z,98792.17
2018-01-23T18:03:04.199Z,98786.57
2018-01-23T18:05:32.515Z,98785.86
2018-01-23T18:08:00.784Z,98784.86
2018-01-23T18:10:29.101Z,98789.06
2018-01-23T18:12:58.144Z,98790.88
2018-01-23T18:15:26.457Z,98792.11
2018-01-23T18:17:54.766Z,98783.68
2018-01-23T18:20:23.124Z,98795.23
2018-01-23T18:22:51.401Z,98779.67
2018-01-23T18:25:19.696Z,98778.84
2018-01-23T18:27:48.042Z,98777.36
2018-01-23T18:30:17.286Z,98775.44
2018-01-23T18:32:45.566Z,98787.61
2018-01-23T18:35:14.668Z,98776.64
2018-01-23T18:37:43.740Z,98776.00
2018-01-23T18:40:12.066Z,98774.87
2018-01-23T18:42:41.119Z,98778.59
2018-01-23T18:45:09.390Z,98772.61
2018-01-23T18:47:37.736Z,98778.16
2018-01-23T18:50:05.987Z,98800.67
2018-01-23T18:52:34.279Z,98771.15
2018-01-23T18:55:02.696Z,98777.86
2018-01-23T18:57:31.055Z,98780.05
2018-01-23T18:59:59.317Z,98776.92
2018-01-23T19:02:27.620Z,98776.41
2018-01-23T19:04:55.903Z,98781.19
2018-01-23T19:07:24.265Z,98769.71
2018-01-23T19:09:52.663Z,98777.02
2018-01-23T19:12:21.758Z,98782.35
2018-01-23T19:17:24.624Z,98779.44
2018-01-23T19:19:52.954Z,98785.90
2018-01-23T19:22:21.257Z,98790.50
2018-01-23T19:24:49.626Z,98789.89
2018-01-23T19:27:17.995Z,98798.94
2018-01-23T19:29:46.326Z,98789.58
2018-01-23T19:32:15.432Z,98791.80
2018-01-23T19:34:43.703Z,98794.63
2018-01-23T19:37:12.031Z,98795.56
2018-01-23T19:39:41.143Z,98797.85
2018-01-23T19:42:10.270Z,98795.68
2018-01-23T19:44:39.526Z,98791.22
2018-01-23T19:47:07.783Z,98788.33
2018-01-23T19:49:36.084Z,98790.59
2018-01-23T19:52:04.404Z,98784.46
2018-01-23T19:54:32.664Z,98779.92
2018-01-23T19:57:00.967Z,98777.66
2018-01-23T19:59:29.289Z,98773.03
2018-01-23T20:01:57.550Z,98766.61
2018-01-23T20:04:25.857Z,98776.13
2018-01-23T20:06:54.153Z,98772.19
2018-01-23T20:09:22.445Z,98768.95
2018-01-23T20:11:50.759Z,98768.06
2018-01-23T20:14:20.013Z,98755.09
2018-01-23T20:16:48.351Z,98750.27
2018-01-23T20:19:17.499Z,98744.70
2018-01-23T20:21:45.760Z,98733.81
2018-01-23T20:24:14.102Z,98735.42
2018-01-23T20:26:42.416Z,98738.42
2018-01-23T20:29:10.738Z,98748.20
2018-01-23T20:31:39.773Z,98728.67
2018-01-23T20:34:08.108Z,98733.06
2018-01-23T20:36:36.418Z,98733.45
2018-01-23T20:39:05.866Z,98742.80
2018-01-23T20:41:34.167Z,98739.66
2018-01-23T20:44:02.518Z,98742.38
2018-01-23T20:46:31.549Z,98733.31
2018-01-23T20:48:59.879Z,98732.68
2018-01-23T20:51:28.119Z,98738.03
2018-01-23T20:53:56.441Z,98735.36
2018-01-23T20:56:24.718Z,98738.39
2018-01-23T20:58:53.028Z,98739.38
2018-01-23T21:01:21.353Z,98732.00
2018-01-23T21:03:50.451Z,98729.13
2018-01-23T21:06:19.546Z,98731.02
2018-01-23T21:08:47.841Z,98719.91
2018-01-23T21:11:16.091Z,98730.28
2018-01-23T21:13:44.356Z,98726.23
2018-01-23T21:16:12.649Z,98721.18
2018-01-23T21:18:40.901Z,98723.25
2018-01-23T21:21:09.156Z,98719.40
2018-01-23T21:23:37.463Z,98709.97
2018-01-23T21:26:05.750Z,98715.92
2018-01-23T21:28:34.029Z,98726.91
2018-01-23T21:31:02.292Z,98730.46
2018-01-23T21:33:30.535Z,98728.81
2018-01-23T21:35:58.860Z,98733.56
2018-01-23T21:38:27.107Z,98728.70
2018-01-23T21:40:55.368Z,98738.24
2018-01-23T21:43:24.755Z,98742.47
2018-01-23T21:45:53.023Z,98752.23
2018-01-23T21:48:22.098Z,98755.97
2018-01-23T21:50:50.366Z,98750.41
2018-01-23T21:53:18.629Z,98755.81
2018-01-23T21:55:46.955Z,98754.95
2018-01-23T21:58:15.206Z,98757.55
2018-01-23T22:00:43.529Z,98766.39
2018-01-23T22:03:12.592Z,98755.89
2018-01-23T22:05:41.611Z,98757.92
2018-01-23T22:08:10.621Z,98764.23
2018-01-23T22:10:38.887Z,98773.66
2018-01-23T22:13:07.952Z,98773.18
2018-01-23T22:15:36.270Z,98778.47
2018-01-23T22:18:04.525Z,98768.12
2018-01-23T22:20:32.787Z,98759.59
2018-01-23T22:23:01.085Z,98766.29
2018-01-23T22:25:29.336Z,98769.21
2018-01-23T22:27:58.394Z,98773.51
2018-01-23T22:30:26.637Z,98764.86
2018-01-23T22:32:55.662Z,98764.95
2018-01-23T22:35:23.955Z,98770.02
2018-01-23T22:37:52.186Z,98771.81
2018-01-23T22:40:20.494Z,98765.57
2018-01-23T22:42:49.230Z,98760.20
2018-01-23T22:45:17.586Z,98773.09
2018-01-23T22:47:45.907Z,98769.94
2018-01-23T22:50:14.186Z,98768.13
2018-01-23T22:52:43.246Z,98764.63
2018-01-23T22:55:11.504Z,98767.47
2018-01-23T22:57:39.751Z,98778.36
2018-01-23T23:00:08.012Z,98774.41
2018-01-23T23:02:36.382Z,98772.98
2018-01-23T23:05:04.618Z,98768.95
2018-01-23T23:07:32.871Z,98781.84
2018-01-23T23:10:01.110Z,98767.70
2018-01-23T23:12:30.179Z,98757.04
2018-01-23T23:14:58.415Z,98767.05
2018-01-23T23:17:27.451Z,98763.97
2018-01-23T23:19:55.691Z,98776.03
2018-01-23T23:22:23.944Z,98768.02
2018-01-23T23:24:52.231Z,98764.09
2018-01-23T23:27:21.338Z,98754.66
2018-01-23T23:29:50.381Z,98755.78
2018-01-23T23:32:18.675Z,98743.64
2018-01-23T23:34:46.977Z,98736.03
2018-01-23T23:37:15.996Z,98737.28
2018-01-23T23:39:44.249Z,98730.56
2018-01-23T23:42:12.505Z,98742.06
2018-01-23T23:44:40.767Z,98732.06
2018-01-23T23:47:09.793Z,98725.69
2018-01-23T23:49:38.042Z,98720.34
2018-01-23T23:52:07.135Z,98726.28
2018-01-23T23:54:35.389Z,98722.06
2018-01-23T23:57:03.671Z,98719.91
2018-01-23T23:59:31.919Z,98717.81
